Time;durP1;ratioP1;P1;durP2;ratioP2;P2;SDS_P1;SDS_P2;PMS_P1;PMS_P2;Temp;Humidity;BMP_temperature;BMP_pressure;BME280_temperature;BME280_humidity;BME280_pressure;Samples;Min_cycle;Max_cycle;Signal;HPM_P1;HPM_P2
2023/01/19 00:02:14;;;;;;;28.75;17.00;;;;;;;6.61;85.31;100334.37;1789724;80;21203;-55
2023/01/19 00:05:19;;;;;;;29.57;17.02;;;;;;;6.61;85.38;100334.37;1791395;79;21212;-54
2023/01/19 00:08:25;;;;;;;30.62;17.62;;;;;;;6.61;85.36;100337.92;1791527;79;21190;-56
2023/01/19 00:11:31;;;;;;;26.40;16.02;;;;;;;6.59;85.39;100341.32;1791451;80;21167;-56
2023/01/19 00:14:38;;;;;;;30.40;18.17;;;;;;;6.59;85.42;100342.68;1791062;79;21228;-56
2023/01/19 00:17:44;;;;;;;29.27;18.10;;;;;;;6.56;85.39;100341.63;1791262;80;21244;-55
2023/01/19 00:20:51;;;;;;;34.67;18.12;;;;;;;6.55;85.37;100343.97;1791476;79;21304;-55
2023/01/19 00:23:58;;;;;;;31.80;17.17;;;;;;;6.54;85.36;100337.33;1791399;79;21252;-56
2023/01/19 00:27:11;;;;;;;29.55;16.97;;;;;;;6.50;85.37;100342.20;1664642;86;21775;-54
2023/01/19 00:30:18;;;;;;;29.65;16.30;;;;;;;6.49;85.39;100360.89;1668352;86;21246;-55
2023/01/19 00:33:23;;;;;;;29.12;18.40;;;;;;;6.48;85.38;100346.09;1670456;85;21589;-56
2023/01/19 00:36:30;;;;;;;29.60;18.02;;;;;;;6.48;85.36;100352.40;1673435;85;21313;-56
2023/01/19 00:39:35;;;;;;;30.35;17.92;;;;;;;6.45;85.36;100350.48;1670027;84;21266;-55
2023/01/19 00:42:47;;;;;;;30.32;18.52;;;;;;;6.43;85.36;100360.14;1655124;85;21222;-57
2023/01/19 00:45:52;;;;;;;30.92;18.27;;;;;;;6.41;85.37;100362.15;1670691;85;21257;-55
2023/01/19 00:48:57;;;;;;;31.57;18.23;;;;;;;6.38;85.38;100361.09;1673806;85;21349;-56
2023/01/19 00:52:04;;;;;;;31.97;18.57;;;;;;;6.38;85.40;100359.73;1637329;87;21527;-55
2023/01/19 00:55:09;;;;;;;31.17;18.75;;;;;;;6.37;85.37;100364.83;1670132;84;21277;-56
2023/01/19 00:58:15;;;;;;;29.32;17.32;;;;;;;6.35;85.40;100380.42;1670372;84;21222;-57
2023/01/19 01:01:21;;;;;;;27.48;17.12;;;;;;;6.35;85.51;100367.33;1663395;84;21246;-55
2023/01/19 01:04:29;;;;;;;33.02;19.05;;;;;;;6.36;85.46;100365.81;1669842;86;21282;-55
2023/01/19 01:07:56;;;;;;;32.33;18.23;;;;;;;6.35;85.39;100370.91;1670157;86;21233;-56
2023/01/19 01:10:40;;;;;;;34.85;19.92;;;;;;;6.32;85.31;100367.13;1673830;85;21218;-56
2023/01/19 01:13:46;;;;;;;31.25;18.50;;;;;;;6.31;85.27;100372.72;1670240;86;21246;-56
2023/01/19 01:16:53;;;;;;;28.57;18.23;;;;;;;6.30;85.33;100373.21;1670842;85;21218;-56
2023/01/19 01:20:00;;;;;;;31.62;18.98;;;;;;;6.30;85.29;100386.80;1670441;85;21238;-56
2023/01/19 01:23:05;;;;;;;34.75;18.48;;;;;;;6.32;85.37;100386.66;1670339;84;21766;-54
2023/01/19 01:26:12;;;;;;;28.57;18.23;;;;;;;6.38;85.49;100387.41;1671017;84;21364;-55
2023/01/19 01:29:18;;;;;;;28.27;18.57;;;;;;;6.40;85.48;100390.36;1656108;84;21242;-56
2023/01/19 01:32:23;;;;;;;32.67;17.98;;;;;;;6.42;85.43;100388.84;1657034;85;21269;-55
2023/01/19 01:35:29;;;;;;;28.27;18.55;;;;;;;6.41;85.34;100396.14;1677376;84;21327;-56
2023/01/19 01:38:34;;;;;;;26.95;17.98;;;;;;;6.41;85.25;100394.77;1677234;84;21269;-56
2023/01/19 01:41:39;;;;;;;28.75;18.55;;;;;;;6.40;85.22;100399.87;1670249;84;21241;-56
2023/01/19 01:44:58;;;;;;;31.48;18.50;;;;;;;6.37;85.14;100401.53;1670325;84;21276;-56
2023/01/19 01:48:17;;;;;;;33.67;17.73;;;;;;;6.35;85.08;100408.97;1670544;86;21221;-56
2023/01/19 01:51:35;;;;;;;29.98;17.25;;;;;;;6.32;85.00;100397.53;1670364;84;21207;-56
2023/01/19 01:54:41;;;;;;;32.13;18.05;;;;;;;6.29;85.01;100400.55;1670251;86;21254;-55
2023/01/19 01:57:50;;;;;;;29.40;17.42;;;;;;;6.29;85.07;100398.70;1670376;86;21264;-55
2023/01/19 02:04:19;;;;;;;28.47;17.02;;;;;;;6.26;85.03;100399.48;1670474;85;21234;-55
2023/01/19 02:14:19;;;;;;;29.23;17.25;;;;;;;6.16;85.01;100402.23;1670450;86;21297;-57
2023/01/19 02:17:26;;;;;;;30.50;18.57;;;;;;;6.13;84.99;100408.46;1670393;86;21222;-56
2023/01/19 02:20:33;;;;;;;28.35;17.52;;;;;;;6.08;85.00;100411.62;1673514;84;21234;-54
2023/01/19 02:23:51;;;;;;;29.90;16.85;;;;;;;6.05;85.01;100401.92;1670821;85;21226;-56
2023/01/19 02:26:57;;;;;;;27.93;17.80;;;;;;;6.03;85.03;100416.14;1656360;83;21308;-56
2023/01/19 02:30:02;;;;;;;34.60;18.85;;;;;;;6.01;85.09;100414.06;1622669;87;21229;-57
2023/01/19 02:33:08;;;;;;;34.80;18.37;;;;;;;5.97;85.03;100405.00;1622212;88;21211;-56
2023/01/19 02:36:17;;;;;;;30.43;17.85;;;;;;;5.93;85.02;100407.66;1622313;88;21594;-55
2023/01/19 02:39:24;;;;;;;32.38;17.77;;;;;;;5.90;85.12;100412.88;1612265;86;21235;-57
2023/01/19 02:42:34;;;;;;;27.48;16.82;;;;;;;5.91;85.19;100404.23;1622196;88;21302;-56
2023/01/19 02:45:40;;;;;;;32.28;18.57;;;;;;;5.90;85.19;100405.21;1611309;86;21360;-57
2023/01/19 02:48:46;;;;;;;31.50;17.82;;;;;;;5.88;85.16;100414.86;1622313;87;21227;-56
2023/01/19 02:51:51;;;;;;;29.55;17.70;;;;;;;5.84;85.13;100403.95;1616882;86;21215;-56
2023/01/19 02:55:21;;;;;;;31.37;18.48;;;;;;;5.85;85.16;100411.08;1622172;87;21792;-55
2023/01/19 02:58:36;;;;;;;29.42;17.12;;;;;;;5.85;85.25;100395.31;1610662;88;21287;-56
2023/01/19 03:02:16;;;;;;;29.75;17.62;;;;;;;5.85;85.25;100399.38;1631877;87;21236;-56
2023/01/19 03:05:47;;;;;;;27.35;18.12;;;;;;;5.84;85.24;100407.16;1622166;88;21291;-56
2023/01/19 03:08:59;;;;;;;32.40;18.85;;;;;;;5.83;85.30;100402.73;1622150;87;21239;-56
2023/01/19 03:12:12;;;;;;;31.62;17.90;;;;;;;5.80;85.22;100406.55;1622251;87;21251;-55
2023/01/19 03:15:26;;;;;;;31.02;17.80;;;;;;;5.78;85.26;100402.28;1622265;87;21819;-55
2023/01/19 03:18:34;;;;;;;26.15;17.30;;;;;;;5.77;85.24;100401.41;1622073;87;21259;-55
2023/01/19 03:21:42;;;;;;;37.58;18.55;;;;;;;5.75;85.30;100398.50;1622240;88;21239;-55
2023/01/19 03:24:52;;;;;;;33.35;18.37;;;;;;;5.74;85.30;100403.59;1622146;87;21315;-55
2023/01/19 03:27:59;;;;;;;29.70;18.10;;;;;;;5.75;85.36;100398.50;1622218;88;21633;-56
2023/01/19 03:31:10;;;;;;;30.50;16.82;;;;;;;5.75;85.38;100392.58;1595211;90;21224;-56
2023/01/19 03:34:17;;;;;;;30.65;17.30;;;;;;;5.75;85.41;100399.86;1606369;88;21369;-55
2023/01/19 03:37:23;;;;;;;31.73;18.67;;;;;;;5.75;85.36;100402.57;1654573;85;21221;-55
2023/01/19 03:40:28;;;;;;;31.93;19.00;;;;;;;5.72;85.33;100419.16;1654797;87;21335;-55
2023/01/19 03:43:33;;;;;;;29.42;17.60;;;;;;;5.72;85.33;100415.08;1654865;86;21295;-55
2023/01/19 03:46:41;;;;;;;31.42;18.67;;;;;;;5.71;85.34;100416.06;1654757;86;21280;-56
2023/01/19 03:49:46;;;;;;;30.82;17.95;;;;;;;5.70;85.33;100418.44;1654839;87;21587;-56
2023/01/19 03:52:52;;;;;;;36.08;19.95;;;;;;;5.68;85.34;100406.85;1654797;87;21236;-56
2023/01/19 03:56:00;;;;;;;36.38;17.75;;;;;;;5.67;85.33;100423.67;1654727;85;21232;-57
2023/01/19 03:59:06;;;;;;;34.73;19.37;;;;;;;5.66;85.29;100419.22;1654752;87;21260;-55
2023/01/19 04:02:12;;;;;;;30.05;18.52;;;;;;;5.69;85.38;100431.67;1654714;87;21272;-56
2023/01/19 04:05:17;;;;;;;32.73;19.30;;;;;;;5.74;85.45;100418.52;1654883;86;21291;-56
2023/01/19 04:08:23;;;;;;;30.68;17.85;;;;;;;5.75;85.44;100423.81;1654813;85;21208;-57
2023/01/19 04:11:30;;;;;;;28.80;17.65;;;;;;;5.79;85.43;100425.71;1654663;85;21208;-57
2023/01/19 04:14:35;;;;;;;33.33;18.95;;;;;;;5.80;85.43;100432.36;1654783;85;21280;-56
2023/01/19 04:17:40;;;;;;;36.35;20.08;;;;;;;5.84;85.46;100437.91;1654841;85;21252;-57
2023/01/19 04:20:46;;;;;;;29.57;19.70;;;;;;;5.91;85.46;100435.47;1654758;87;21242;-57
2023/01/19 04:23:52;;;;;;;35.30;20.05;;;;;;;5.96;85.35;100438.09;1654701;85;21391;-56
2023/01/19 04:27:00;;;;;;;33.53;19.73;;;;;;;5.96;85.24;100440.81;1654898;87;21268;-56
2023/01/19 04:30:06;;;;;;;34.65;20.12;;;;;;;5.98;85.19;100447.45;1659204;85;21289;-56
2023/01/19 04:33:12;;;;;;;34.35;19.73;;;;;;;6.00;85.19;100442.73;1670279;86;21214;-56
2023/01/19 04:36:18;;;;;;;32.25;19.57;;;;;;;6.03;85.19;100452.82;1670285;86;21194;-57
2023/01/19 04:39:23;;;;;;;40.00;19.67;;;;;;;6.06;85.14;100456.61;1670380;86;21238;-57
2023/01/19 04:42:31;;;;;;;34.08;18.98;;;;;;;6.08;85.06;100451.89;1670319;84;21218;-56
2023/01/19 04:45:38;;;;;;;35.10;20.77;;;;;;;6.12;85.09;100453.79;1670315;84;21246;-55
2023/01/19 04:48:45;;;;;;;31.60;18.50;;;;;;;6.16;85.07;100455.72;1670221;84;21348;-56
2023/01/19 04:51:52;;;;;;;28.87;18.20;;;;;;;6.14;84.98;100464.02;1670339;86;21290;-58
2023/01/19 04:54:57;;;;;;;32.25;18.73;;;;;;;6.14;84.92;100467.27;1654598;84;21301;-58
2023/01/19 04:58:03;;;;;;;30.20;18.48;;;;;;;6.11;84.86;100457.52;1670342;84;21273;-56
2023/01/19 05:01:11;;;;;;;31.68;18.32;;;;;;;6.07;84.76;100464.27;1670175;86;21293;-57
2023/01/19 05:04:16;;;;;;;30.77;17.77;;;;;;;6.06;84.75;100474.27;1670102;84;21198;-56
2023/01/19 05:07:21;;;;;;;34.88;18.35;;;;;;;6.05;84.71;100474.41;1659767;85;21254;-56
2023/01/19 05:10:28;;;;;;;29.75;18.35;;;;;;;6.04;84.67;100472.71;1648503;87;21231;-57
2023/01/19 05:13:34;;;;;;;31.00;19.32;;;;;;;6.02;84.68;100474.19;1648804;85;21219;-56
2023/01/19 05:16:42;;;;;;;32.65;19.87;;;;;;;6.05;84.58;100477.13;1648633;86;21223;-58
2023/01/19 05:19:48;;;;;;;35.08;19.92;;;;;;;6.01;84.55;100478.41;1648795;85;21239;-57
2023/01/19 05:22:58;;;;;;;32.48;20.17;;;;;;;5.98;84.50;100489.56;1676051;84;21223;-57
2023/01/19 05:26:05;;;;;;;34.20;19.52;;;;;;;5.94;84.47;100482.23;1679268;85;21593;-55
2023/01/19 05:29:10;;;;;;;33.48;19.98;;;;;;;5.90;84.45;100479.42;1679137;85;21223;-56
2023/01/19 05:32:17;;;;;;;28.47;18.67;;;;;;;5.90;84.53;100482.63;1678470;84;21270;-55
2023/01/19 05:35:23;;;;;;;30.02;18.30;;;;;;;5.90;84.51;100482.14;1679570;85;21227;-56
2023/01/19 05:38:30;;;;;;;32.63;19.48;;;;;;;5.89;84.53;100474.14;1679824;85;21251;-56
2023/01/19 05:41:35;;;;;;;29.90;18.23;;;;;;;5.91;84.59;100477.58;1679475;85;21248;-56
2023/01/19 05:44:41;;;;;;;30.48;18.20;;;;;;;5.93;84.58;100491.88;1661984;84;21333;-57
2023/01/19 05:47:46;;;;;;;35.70;18.82;;;;;;;5.93;84.54;100481.85;1664660;85;21246;-57
2023/01/19 05:50:53;;;;;;;34.43;20.52;;;;;;;5.93;84.59;100491.36;1643035;86;21258;-57
2023/01/19 05:53:58;;;;;;;37.98;21.87;;;;;;;5.96;84.68;100489.71;1624818;86;21264;-56
2023/01/19 05:57:03;;;;;;;35.58;21.12;;;;;;;5.96;84.63;100483.45;1590402;88;21364;-57
2023/01/19 06:00:09;;;;;;;34.58;20.77;;;;;;;5.99;84.66;100489.42;1614571;88;21867;-57
2023/01/19 06:03:14;;;;;;;31.70;18.85;;;;;;;6.03;84.69;100495.43;1667429;84;21229;-57
2023/01/19 06:06:20;;;;;;;32.58;19.30;;;;;;;6.05;84.69;100492.95;1652770;84;21345;-57
2023/01/19 06:09:28;;;;;;;34.45;19.12;;;;;;;6.07;84.66;100494.16;1668212;85;21585;-57
2023/01/19 06:12:34;;;;;;;29.25;19.30;;;;;;;6.10;84.65;100505.57;1668636;84;21204;-57
2023/01/19 06:15:39;;;;;;;37.05;19.45;;;;;;;6.17;84.76;100488.71;1648304;85;21785;-58
2023/01/19 06:18:47;;;;;;;31.82;18.25;;;;;;;6.20;84.71;100495.21;1654753;84;21596;-58
2023/01/19 06:21:56;;;;;;;31.33;18.17;;;;;;;6.24;84.72;100497.48;1665041;85;21853;-57
2023/01/19 06:25:03;;;;;;;31.95;18.32;;;;;;;6.29;84.70;100506.56;1695140;84;21235;-57
2023/01/19 06:28:12;;;;;;;31.42;18.55;;;;;;;6.30;84.66;100498.75;1641047;86;21269;-54
2023/01/19 06:31:21;;;;;;;38.58;19.55;;;;;;;6.31;84.61;100513.55;1664532;85;21276;-54
2023/01/19 06:34:28;;;;;;;30.65;18.50;;;;;;;6.32;84.62;100522.09;1628402;86;21263;-54
2023/01/19 06:37:38;;;;;;;30.97;18.25;;;;;;;6.35;84.64;100524.51;1630769;86;21900;-54
2023/01/19 06:40:45;;;;;;;34.63;19.50;;;;;;;6.39;84.66;100521.00;1631208;86;21784;-53
2023/01/19 06:44:06;;;;;;;30.27;17.40;;;;;;;6.39;84.65;100527.80;1638632;85;21787;-54
2023/01/19 06:47:13;;;;;;;32.58;18.77;;;;;;;6.41;84.64;100532.08;1759546;79;21536;-54
2023/01/19 06:50:19;;;;;;;28.87;17.85;;;;;;;6.46;84.69;100539.30;1765120;79;21176;-53
2023/01/19 06:53:29;;;;;;;29.75;17.07;;;;;;;6.51;84.76;100531.56;1781879;79;21251;-54
2023/01/19 06:56:34;;;;;;;28.35;17.37;;;;;;;6.61;84.85;100534.27;1764839;80;21196;-56
2023/01/19 06:59:44;;;;;;;29.20;17.15;;;;;;;6.66;84.87;100528.72;1764644;80;21244;-53
2023/01/19 07:02:50;;;;;;;28.65;17.17;;;;;;;6.71;84.91;100548.19;1789598;79;21305;-54
2023/01/19 07:06:01;;;;;;;31.75;17.32;;;;;;;6.76;84.92;100554.54;1795819;80;21201;-53
2023/01/19 07:09:12;;;;;;;27.62;16.45;;;;;;;6.82;84.96;100551.25;1786841;78;21571;-55
2023/01/19 07:12:20;;;;;;;;;;;;;;;6.89;85.00;100554.59;1778468;79;21215;-54
2023/01/19 07:15:28;;;;;;;32.35;16.75;;;;;;;6.94;85.00;100548.20;1772214;79;20209;-55
2023/01/19 07:18:34;;;;;;;29.70;16.60;;;;;;;6.96;85.01;100547.52;1744979;79;21174;-53
2023/01/19 07:21:41;;;;;;;24.67;15.98;;;;;;;6.98;85.03;100541.44;1773434;79;21193;-54
2023/01/19 07:24:49;;;;;;;28.98;16.75;;;;;;;7.00;85.07;100550.81;1796145;79;21220;-54
2023/01/19 07:27:54;;;;;;;30.27;16.97;;;;;;;7.02;85.08;100546.95;1796599;80;21247;-54
2023/01/19 07:31:01;;;;;;;24.80;14.75;;;;;;;7.07;85.17;100547.34;1783878;79;21636;-54
2023/01/19 07:34:06;;;;;;;25.23;15.00;;;;;;;7.13;85.25;100542.69;1773665;80;21269;-54
2023/01/19 07:37:55;;;;;;;23.92;14.58;;;;;;;7.18;85.28;100546.31;1756331;80;21209;-55
2023/01/19 07:41:18;;;;;;;32.38;15.53;;;;;;;7.24;85.36;100547.93;1709269;83;21655;-53
2023/01/19 07:44:26;;;;;;;28.25;15.60;;;;;;;7.30;85.34;100547.81;1696413;83;21214;-51
2023/01/19 07:47:33;;;;;;;32.83;16.30;;;;;;;7.34;85.39;100555.52;1683101;83;21769;-54
2023/01/19 07:50:47;;;;;;;27.15;15.58;;;;;;;7.46;85.41;100557.05;1824669;76;22270;-53
2023/01/19 07:53:53;;;;;;;28.07;15.88;;;;;;;7.47;85.46;100557.89;1740206;81;21649;-53
2023/01/19 07:57:03;;;;;;;31.10;15.38;;;;;;;7.55;85.53;100556.63;1768942;80;21177;-52
2023/01/19 08:00:08;;;;;;;30.37;16.45;;;;;;;7.65;85.56;100550.62;1757165;80;21173;-53
2023/01/19 08:03:14;;;;;;;25.20;14.23;;;;;;;7.72;85.54;100549.02;1770465;79;21212;-51
2023/01/19 08:06:29;;;;;;;26.60;14.45;;;;;;;7.81;85.58;100543.13;1711610;82;21746;-52
2023/01/19 08:09:37;;;;;;;29.40;14.20;;;;;;;7.89;85.55;100552.75;1763053;81;21197;-52
2023/01/19 08:12:43;;;;;;;27.02;14.38;;;;;;;7.98;85.54;100561.36;1741455;81;21597;-52
2023/01/19 08:15:50;;;;;;;23.83;13.22;;;;;;;8.05;85.52;100544.74;1732352;81;21348;-52
2023/01/19 08:18:57;;;;;;;19.98;12.85;;;;;;;8.13;85.53;100551.64;1733901;81;21255;-52
2023/01/19 08:22:04;;;;;;;20.92;13.05;;;;;;;8.19;85.45;100548.28;1758708;80;21801;-50
2023/01/19 08:25:13;;;;;;;25.70;13.70;;;;;;;8.28;85.46;100546.86;1749228;81;21224;-52
2023/01/19 08:28:22;;;;;;;25.17;13.83;;;;;;;8.36;85.54;100551.03;1750803;81;21197;-52
2023/01/19 08:31:31;;;;;;;26.15;13.75;;;;;;;8.47;85.54;100556.73;1766752;80;21691;-52
2023/01/19 08:34:38;;;;;;;22.42;12.98;;;;;;;8.55;85.48;100545.88;1768035;80;21243;-52
2023/01/19 08:37:46;;;;;;;21.60;11.85;;;;;;;8.63;85.51;100556.86;1730746;81;21199;-53
2023/01/19 08:40:53;;;;;;;25.32;12.15;;;;;;;8.70;85.45;100555.22;1769913;79;21216;-53
2023/01/19 08:44:03;;;;;;;20.95;11.95;;;;;;;8.79;85.54;100555.61;1760654;80;21217;-53
2023/01/19 08:47:11;;;;;;;23.65;12.50;;;;;;;8.93;85.60;100556.39;1759093;79;21209;-52
2023/01/19 08:50:18;;;;;;;28.77;12.05;;;;;;;9.01;85.55;100549.61;1769094;80;21217;-53
2023/01/19 08:53:24;;;;;;;15.90;10.93;;;;;;;9.08;85.55;100550.16;1768812;80;22079;-53
2023/01/19 08:56:31;;;;;;;22.48;11.70;;;;;;;9.16;85.53;100554.83;1770460;80;21178;-53
2023/01/19 08:59:38;;;;;;;22.77;10.75;;;;;;;9.23;85.57;100555.87;1767848;80;21762;-53
2023/01/19 09:02:44;;;;;;;17.35;11.03;;;;;;;9.34;85.70;100561.05;1767454;80;21178;-53
2023/01/19 09:05:51;;;;;;;21.12;10.78;;;;;;;9.45;85.64;100551.73;1768837;79;21730;-54
2023/01/19 09:08:57;;;;;;;21.33;10.20;;;;;;;9.56;85.71;100555.53;1751489;80;21213;-52
2023/01/19 09:12:03;;;;;;;18.75;9.48;;;;;;;9.64;85.68;100550.92;1758297;81;21185;-49
2023/01/19 09:15:09;;;;;;;19.55;9.95;;;;;;;9.73;85.71;100547.22;1751115;79;21318;-53
2023/01/19 09:18:18;;;;;;;19.05;10.28;;;;;;;9.83;85.75;100556.11;1758715;81;21677;-53
2023/01/19 09:21:23;;;;;;;20.60;10.43;;;;;;;9.89;85.65;100554.10;1756243;81;22078;-53
2023/01/19 09:24:30;;;;;;;17.15;9.28;;;;;;;9.94;85.66;100548.95;1768570;79;21726;-53
2023/01/19 09:27:42;;;;;;;17.25;9.00;;;;;;;10.02;85.68;100546.78;1759486;81;21566;-53
2023/01/19 09:30:49;;;;;;;22.07;9.25;;;;;;;10.12;85.73;100550.22;1762715;80;21248;-53
2023/01/19 09:33:57;;;;;;;15.75;8.83;;;;;;;10.19;85.72;100545.80;1766944;80;21579;-53
2023/01/19 09:37:03;;;;;;;16.73;8.03;;;;;;;10.26;85.67;100545.45;1766766;80;21786;-53
2023/01/19 09:40:14;;;;;;;23.92;9.28;;;;;;;10.31;85.64;100539.83;1768596;79;21275;-53
2023/01/19 09:43:42;;;;;;;18.85;9.10;;;;;;;10.37;85.62;100532.30;1766350;80;21528;-57
2023/01/19 09:46:50;;;;;;;19.30;8.03;;;;;;;10.45;85.62;100542.37;1758416;80;21205;-57
2023/01/19 09:50:06;;;;;;;15.55;8.23;;;;;;;10.53;85.64;100548.72;1766452;80;21240;-57
2023/01/19 09:53:22;;;;;;;16.17;8.38;;;;;;;10.56;85.59;100534.69;1729092;82;21196;-57
2023/01/19 09:56:27;;;;;;;22.35;9.93;;;;;;;10.63;85.60;100544.94;1722450;82;21220;-57
2023/01/19 09:59:38;;;;;;;18.30;8.75;;;;;;;10.66;85.48;100550.06;1735859;81;21216;-59
2023/01/19 10:02:51;;;;;;;16.10;9.00;;;;;;;10.69;85.44;100541.53;1735865;81;21243;-57
2023/01/19 10:06:11;;;;;;;14.35;7.90;;;;;;;10.74;85.52;100551.43;1735221;82;21753;-56
2023/01/19 10:09:40;;;;;;;14.58;8.15;;;;;;;10.81;85.53;100543.74;1734878;81;21789;-56
2023/01/19 10:13:32;;;;;;;17.00;8.45;;;;;;;10.91;85.50;100546.30;1734588;81;21345;-57
2023/01/19 10:16:59;;;;;;;16.20;8.10;;;;;;;11.00;85.41;100529.67;1734407;81;21196;-56
2023/01/19 10:20:07;;;;;;;18.52;7.92;;;;;;;11.10;85.38;100528.11;1735040;81;21191;-57
2023/01/19 10:23:22;;;;;;;18.12;8.23;;;;;;;11.20;85.37;100517.77;1701012;84;21734;-58
2023/01/19 10:26:45;;;;;;;14.60;7.33;;;;;;;11.32;85.32;100511.73;1675738;85;21225;-58
2023/01/19 10:29:51;;;;;;;18.05;8.15;;;;;;;11.51;85.30;100511.84;1648237;85;21297;-58
2023/01/19 10:32:56;;;;;;;14.87;7.95;;;;;;;11.73;85.27;100509.70;1668162;85;21268;-57
2023/01/19 10:36:02;;;;;;;12.60;7.25;;;;;;;11.88;85.15;100503.76;1642501;85;21225;-57
2023/01/19 10:39:12;;;;;;;16.57;6.78;;;;;;;12.03;85.18;100495.09;1674829;85;21236;-57
2023/01/19 10:42:21;;;;;;;13.38;6.67;;;;;;;12.19;85.19;100500.47;1717778;82;21223;-57
2023/01/19 10:45:35;;;;;;;13.83;6.37;;;;;;;12.24;84.92;100493.89;1706766;82;21804;-54
2023/01/19 10:48:49;;;;;;;14.93;6.50;;;;;;;12.20;84.77;100488.95;1706445;82;21590;-58
2023/01/19 10:51:59;;;;;;;16.45;7.25;;;;;;;12.15;84.66;100486.77;1714062;80;21259;-56
2023/01/19 10:55:09;;;;;;;15.15;6.03;;;;;;;12.12;84.62;100487.13;1756237;80;21210;-58
2023/01/19 10:58:35;;;;;;;16.60;6.78;;;;;;;12.11;84.51;100490.06;1752503;81;21229;-56
2023/01/19 11:01:42;;;;;;;14.30;6.60;;;;;;;12.02;84.25;100477.77;1754346;79;21191;-57
2023/01/19 11:04:53;;;;;;;13.80;6.53;;;;;;;11.87;83.95;100478.75;1757203;81;21248;-57
2023/01/19 11:07:59;;;;;;;13.53;5.85;;;;;;;11.79;83.94;100473.31;1739082;82;21569;-56
2023/01/19 11:11:08;;;;;;;13.45;7.08;;;;;;;11.79;84.11;100467.83;1749432;80;21698;-58
2023/01/19 11:14:21;;;;;;;12.80;5.62;;;;;;;11.78;84.07;100460.11;1738702;81;21590;-57
2023/01/19 11:17:29;;;;;;;14.38;6.50;;;;;;;11.80;84.16;100459.42;1738492;81;22150;-54
2023/01/19 11:20:42;;;;;;;13.83;8.08;;;;;;;11.86;84.19;100457.85;1757922;81;21201;-54
2023/01/19 11:23:58;;;;;;;20.77;8.85;;;;;;;11.89;84.16;100457.48;1738758;81;21185;-53
2023/01/19 11:27:05;;;;;;;14.20;7.08;;;;;;;11.92;84.14;100453.00;1761218;80;21809;-54
2023/01/19 11:30:30;;;;;;;22.82;8.88;;;;;;;11.95;84.07;100440.29;1699570;81;21236;-53
2023/01/19 11:33:51;;;;;;;18.30;8.87;;;;;;;11.95;84.02;100458.12;1726475;82;21251;-53
2023/01/19 11:37:23;;;;;;;15.35;8.55;;;;;;;11.96;83.95;100457.07;1719525;83;21245;-53
2023/01/19 11:40:30;;;;;;;15.00;7.83;;;;;;;11.93;83.90;100448.70;1720155;82;21206;-54
2023/01/19 11:43:36;;;;;;;14.18;7.50;;;;;;;11.87;83.78;100449.95;1703230;82;21257;-53
2023/01/19 11:46:44;;;;;;;14.35;7.87;;;;;;;11.82;83.74;100442.78;1683954;84;21213;-53
2023/01/19 11:49:53;;;;;;;13.83;7.65;;;;;;;11.82;83.80;100446.38;1766440;79;21272;-54
2023/01/19 11:53:08;;;;;;;9.95;6.62;;;;;;;11.83;83.83;100432.12;1733044;81;21855;-52
2023/01/19 11:56:21;;;;;;;13.85;7.70;;;;;;;11.84;83.75;100429.74;1767481;79;21197;-53
2023/01/19 11:59:28;;;;;;;17.27;8.70;;;;;;;11.83;83.72;100428.88;1768546;79;21217;-53
2023/01/19 12:02:49;;;;;;;13.55;6.33;;;;;;;11.85;83.75;100436.92;1768094;80;21542;-54
2023/01/19 12:05:58;;;;;;;13.70;7.22;;;;;;;11.84;83.71;100443.45;1763926;79;21214;-55
2023/01/19 12:09:08;;;;;;;14.53;6.78;;;;;;;11.85;83.81;100438.30;1747549;81;21598;-54
2023/01/19 12:12:32;;;;;;;11.38;6.08;;;;;;;11.86;83.79;100438.66;1768190;79;21252;-53
2023/01/19 12:15:49;;;;;;;14.63;6.47;;;;;;;11.82;83.75;100434.05;1728062;82;21204;-54
2023/01/19 12:19:12;;;;;;;10.03;5.75;;;;;;;11.82;83.73;100431.80;1769951;80;22047;-55
2023/01/19 12:22:22;;;;;;;15.68;6.45;;;;;;;11.82;83.74;100433.17;1765649;80;21224;-55
2023/01/19 12:25:33;;;;;;;13.65;6.80;;;;;;;11.82;83.69;100430.44;1768640;79;21205;-54
2023/01/19 12:28:42;;;;;;;16.05;7.35;;;;;;;11.81;83.65;100428.20;1768575;79;21260;-53
2023/01/19 12:31:50;;;;;;;19.00;6.72;;;;;;;11.79;83.57;100426.69;1740123;79;21218;-54
2023/01/19 12:34:58;;;;;;;13.35;6.72;;;;;;;11.74;83.54;100429.12;1731289;81;21824;-53
2023/01/19 12:38:04;;;;;;;11.50;6.35;;;;;;;11.73;83.60;100431.54;1753957;81;21543;-54
2023/01/19 12:41:34;;;;;;;14.30;6.95;;;;;;;11.69;83.57;100426.92;1718654;81;21188;-55
2023/01/19 12:44:39;;;;;;;10.53;7.22;;;;;;;11.67;83.54;100428.99;1767189;80;21273;-54
2023/01/19 12:47:46;;;;;;;16.30;7.60;;;;;;;11.64;83.58;100438.09;1686391;84;21248;-55
2023/01/19 12:50:54;;;;;;;14.85;7.80;;;;;;;11.64;83.58;100435.34;1763576;81;21185;-54
2023/01/19 12:54:03;;;;;;;16.80;7.65;;;;;;;11.61;83.49;100431.56;1767083;79;21248;-54
2023/01/19 12:57:13;;;;;;;13.32;7.40;;;;;;;11.60;83.56;100436.22;1769343;79;21261;-54
2023/01/19 13:00:33;;;;;;;13.18;7.30;;;;;;;11.61;83.63;100432.94;1767874;79;21190;-56
2023/01/19 13:04:10;;;;;;;19.87;7.47;;;;;;;11.68;83.77;100438.95;1756801;80;21224;-52
2023/01/19 13:07:18;;;;;;;14.83;7.03;;;;;;;11.81;83.90;100445.20;1758627;79;21324;-54
2023/01/19 13:11:11;;;;;;;12.88;7.45;;;;;;;11.96;83.99;100441.47;1740031;81;21331;-54
2023/01/19 13:14:42;;;;;;;13.13;8.03;;;;;;;12.09;83.97;100438.11;1756557;80;21217;-54
2023/01/19 13:18:00;;;;;;;13.65;7.72;;;;;;;12.18;83.88;100441.11;1742044;79;21613;-55
2023/01/19 13:21:12;;;;;;;13.40;7.78;;;;;;;12.24;83.83;100441.73;1752114;81;21832;-53
2023/01/19 13:24:22;;;;;;;13.43;8.68;;;;;;;12.23;83.74;100446.04;1770086;79;21203;-55
2023/01/19 13:27:28;;;;;;;17.00;9.08;;;;;;;12.20;83.69;100447.78;1767278;80;21372;-54
2023/01/19 13:30:35;;;;;;;20.08;9.48;;;;;;;12.18;83.75;100456.75;1769476;79;21202;-54
2023/01/19 13:33:57;;;;;;;17.82;9.60;;;;;;;12.15;83.71;100453.83;1769334;80;21985;-54
2023/01/19 13:37:05;;;;;;;13.70;8.00;;;;;;;12.12;83.67;100446.48;1763238;81;21237;-54
2023/01/19 13:40:13;;;;;;;15.45;8.13;;;;;;;12.05;83.57;100450.48;1754414;79;21252;-55
2023/01/19 13:43:33;;;;;;;14.47;8.55;;;;;;;11.96;83.48;100452.45;1769914;80;21197;-54
2023/01/19 13:46:39;;;;;;;12.82;8.50;;;;;;;11.85;83.39;100450.13;1760297;80;21820;-54
2023/01/19 13:49:47;;;;;;;16.67;9.08;;;;;;;11.71;83.34;100441.83;1753007;80;21284;-54
2023/01/19 13:52:55;;;;;;;14.68;8.05;;;;;;;11.62;83.37;100450.58;1764093;80;21178;-55
2023/01/19 13:56:27;;;;;;;12.05;7.62;;;;;;;11.53;83.40;100451.67;1768532;80;21213;-53
2023/01/19 13:59:34;;;;;;;17.67;9.00;;;;;;;11.42;83.38;100454.82;1767474;79;21285;-58
2023/01/19 14:02:40;;;;;;;15.68;8.93;;;;;;;11.32;83.40;100451.44;1757650;81;21217;-59
2023/01/19 14:05:49;;;;;;;17.27;8.90;;;;;;;11.23;83.34;100446.17;1767841;80;21204;-58
2023/01/19 14:09:15;;;;;;;15.70;7.17;;;;;;;11.12;83.29;100462.50;1759709;79;21209;-57
2023/01/19 14:12:24;;;;;;;13.03;8.33;;;;;;;11.00;83.29;100460.33;1769234;81;21773;-57
2023/01/19 14:15:30;;;;;;;13.95;7.90;;;;;;;10.88;83.29;100465.86;1767203;79;21181;-57
2023/01/19 14:18:39;;;;;;;15.15;7.92;;;;;;;10.80;83.40;100474.09;1769942;79;21213;-56
2023/01/19 14:21:46;;;;;;;16.27;8.15;;;;;;;10.73;83.46;100471.19;1768977;80;21209;-57
2023/01/19 14:24:52;;;;;;;13.68;8.25;;;;;;;10.67;83.53;100466.92;1768045;79;21284;-56
2023/01/19 14:27:59;;;;;;;16.65;8.90;;;;;;;10.60;83.61;100466.77;1766732;80;21695;-56
2023/01/19 14:31:05;;;;;;;14.45;8.25;;;;;;;10.58;83.69;100480.30;1761308;80;21181;-56
2023/01/19 14:34:11;;;;;;;16.42;8.50;;;;;;;10.53;83.72;100473.44;1768889;80;21205;-58
2023/01/19 14:37:29;;;;;;;13.50;8.35;;;;;;;10.48;83.74;100481.85;1768586;80;21166;-57
2023/01/19 14:40:36;;;;;;;12.07;6.87;;;;;;;10.42;83.76;100479.28;1768862;80;21189;-56
2023/01/19 14:43:43;;;;;;;16.00;8.28;;;;;;;10.38;83.77;100477.06;1768823;80;21285;-58